createdAt,value
2022-08-22T00:00:18.905Z,4.46
2022-08-22T00:02:42.336Z,2.44
2022-08-22T00:02:45.056Z,2.19
2022-08-22T00:03:00.777Z,2.18
2022-08-22T00:03:12.111Z,2.80
2022-08-22T00:04:18.908Z,3.52
2022-08-22T00:05:18.906Z,3.93
2022-08-22T00:07:18.905Z,4.03
2022-08-22T00:08:18.905Z,3.99
2022-08-22T00:09:18.918Z,3.41
2022-08-22T00:10:25.070Z,3.30
2022-08-22T00:11:18.914Z,3.66
2022-08-22T00:12:18.934Z,3.33
2022-08-22T00:13:18.929Z,3.16
2022-08-22T00:16:18.921Z,3.61
2022-08-22T00:17:18.935Z,2.97
2022-08-22T00:18:19.034Z,3.13
2022-08-22T00:21:18.958Z,3.42
2022-08-22T00:23:18.958Z,3.21
2022-08-22T00:25:25.822Z,2.99
2022-08-22T00:27:18.966Z,3.68
2022-08-22T00:28:18.974Z,3.63
2022-08-22T00:29:18.970Z,3.74
2022-08-22T00:30:18.961Z,3.57
2022-08-22T00:32:18.979Z,3.10
2022-08-22T00:34:18.993Z,3.52
2022-08-22T00:39:18.986Z,3.40
2022-08-22T00:43:19.003Z,3.80
2022-08-22T00:44:18.995Z,3.75
2022-08-22T00:47:19.027Z,2.85
2022-08-22T00:49:19.031Z,3.49
2022-08-22T00:50:19.046Z,3.37
2022-08-22T00:51:19.018Z,3.80
2022-08-22T00:52:19.017Z,3.64
2022-08-22T00:53:19.019Z,3.02
2022-08-22T00:54:19.034Z,3.07
2022-08-22T00:55:19.036Z,3.08
2022-08-22T00:56:19.027Z,3.07
2022-08-22T00:57:19.044Z,3.08
2022-08-22T00:59:23.381Z,3.26
2022-08-22T01:00:19.046Z,3.64
2022-08-22T01:01:19.075Z,3.25
2022-08-22T01:03:19.059Z,3.60
2022-08-22T01:07:19.095Z,3.44
2022-08-22T01:08:19.068Z,3.88
2022-08-22T01:09:19.061Z,3.47
2022-08-22T01:13:19.095Z,4.40
2022-08-22T01:15:19.091Z,3.54
2022-08-22T01:16:19.086Z,3.42
2022-08-22T01:18:19.090Z,3.45
2022-08-22T01:19:19.087Z,3.61
2022-08-22T01:22:19.118Z,3.23
2022-08-22T01:23:19.126Z,3.53
2022-08-22T01:24:19.116Z,3.45
2022-08-22T01:26:19.393Z,3.16
2022-08-22T01:27:19.125Z,3.75
2022-08-22T01:28:19.126Z,3.50
2022-08-22T01:29:19.113Z,4.17
2022-08-22T01:30:19.120Z,4.16
2022-08-22T01:32:19.154Z,3.51
2022-08-22T01:33:19.153Z,3.72
2022-08-22T01:35:19.135Z,3.73
2022-08-22T01:36:19.137Z,3.38
2022-08-22T01:37:19.149Z,3.79
2022-08-22T01:38:19.140Z,3.90
2022-08-22T01:39:19.155Z,3.17
2022-08-22T01:40:19.285Z,3.31
2022-08-22T01:41:19.144Z,2.93
2022-08-22T01:42:19.147Z,4.03
2022-08-22T01:44:19.170Z,3.96
2022-08-22T01:45:19.151Z,4.13
2022-08-22T01:46:20.661Z,4.06
2022-08-22T01:47:19.173Z,3.91
2022-08-22T01:52:19.583Z,3.50
2022-08-22T01:53:19.191Z,3.05
2022-08-22T01:54:19.193Z,3.54
2022-08-22T01:55:19.185Z,3.59
2022-08-22T01:56:19.184Z,3.67
2022-08-22T01:57:19.206Z,3.78
2022-08-22T01:58:19.199Z,3.90
2022-08-22T01:59:19.197Z,3.90
2022-08-22T02:01:19.240Z,4.07
2022-08-22T02:02:19.201Z,4.02
2022-08-22T02:03:19.201Z,4.00
2022-08-22T02:04:19.193Z,3.80
2022-08-22T02:05:19.219Z,3.84
2022-08-22T02:10:19.220Z,3.85
2022-08-22T02:11:19.241Z,3.54
2022-08-22T02:14:19.228Z,3.40
2022-08-22T02:15:19.252Z,3.84
2022-08-22T02:16:19.237Z,3.45
2022-08-22T02:17:19.251Z,4.11
2022-08-22T02:18:19.237Z,3.11
2022-08-22T02:19:19.235Z,3.42
2022-08-22T02:20:20.443Z,3.87
2022-08-22T02:21:19.252Z,3.38
2022-08-22T02:22:19.268Z,3.60
2022-08-22T02:23:19.269Z,3.79
2022-08-22T02:24:19.276Z,3.59
2022-08-22T02:25:19.278Z,3.66
2022-08-22T02:26:19.254Z,3.78
2022-08-22T02:27:19.284Z,4.22
2022-08-22T02:28:19.268Z,3.65
2022-08-22T02:29:19.278Z,3.79
2022-08-22T02:30:19.262Z,3.96
2022-08-22T02:31:19.274Z,3.30
2022-08-22T02:33:19.301Z,3.69
2022-08-22T02:34:19.307Z,3.60
2022-08-22T02:35:19.309Z,4.14
2022-08-22T02:36:19.301Z,3.79
2022-08-22T02:37:19.297Z,4.37
2022-08-22T02:38:19.314Z,3.95
2022-08-22T02:40:19.356Z,3.92
2022-08-22T02:41:19.300Z,3.47
2022-08-22T02:42:19.321Z,3.78
2022-08-22T02:43:19.330Z,3.91
2022-08-22T02:44:19.307Z,4.25
2022-08-22T02:45:19.327Z,3.89
2022-08-22T02:46:19.310Z,3.90
2022-08-22T02:47:19.308Z,4.25
2022-08-22T02:48:19.345Z,3.81
2022-08-22T02:49:19.333Z,4.18
2022-08-22T02:50:19.346Z,3.57
2022-08-22T02:52:19.338Z,3.54
2022-08-22T02:53:19.345Z,4.05
2022-08-22T02:59:19.363Z,3.90
2022-08-22T03:00:31.682Z,4.10
2022-08-22T03:01:19.413Z,3.45
2022-08-22T03:02:19.366Z,3.67
2022-08-22T03:03:19.367Z,3.78
2022-08-22T03:04:19.374Z,3.96
2022-08-22T03:05:19.363Z,4.02
2022-08-22T03:07:19.369Z,3.85
2022-08-22T03:08:19.391Z,3.44
2022-08-22T03:12:19.409Z,3.64
2022-08-22T03:14:19.397Z,4.23
2022-08-22T03:18:19.409Z,3.53
2022-08-22T03:22:19.417Z,3.63
2022-08-22T03:23:19.411Z,3.19
2022-08-22T03:24:19.427Z,4.00
2022-08-22T03:25:19.405Z,3.80
2022-08-22T03:26:19.412Z,3.49
2022-08-22T03:27:32.373Z,3.90
2022-08-22T03:28:19.451Z,4.53
2022-08-22T03:29:19.437Z,3.63
2022-08-22T03:30:19.419Z,3.64
2022-08-22T03:31:19.430Z,3.74
2022-08-22T03:32:19.430Z,4.22
2022-08-22T03:34:19.440Z,4.30
2022-08-22T03:35:19.436Z,3.63
2022-08-22T03:36:19.425Z,3.14
2022-08-22T03:37:19.472Z,3.34
2022-08-22T03:38:19.441Z,3.84
2022-08-22T03:39:19.444Z,4.11
2022-08-22T03:40:19.506Z,3.81
2022-08-22T03:41:19.468Z,3.56
2022-08-22T03:42:19.465Z,4.20
2022-08-22T03:44:19.469Z,3.87
2022-08-22T03:45:19.452Z,3.96
2022-08-22T03:46:19.464Z,4.08
2022-08-22T03:47:19.474Z,3.75
2022-08-22T03:48:19.489Z,4.10
2022-08-22T03:49:19.488Z,3.91
2022-08-22T03:50:19.496Z,3.50
2022-08-22T03:53:19.523Z,3.82
2022-08-22T03:54:19.488Z,3.58
2022-08-22T03:56:19.521Z,3.88
2022-08-22T03:57:19.484Z,3.60
2022-08-22T03:58:27.836Z,3.52
2022-08-22T03:59:19.513Z,4.33
2022-08-22T04:00:19.520Z,3.86
2022-08-22T04:02:31.471Z,3.85
2022-08-22T04:03:19.514Z,4.40
2022-08-22T04:04:19.525Z,3.77
2022-08-22T04:05:20.497Z,4.06
2022-08-22T04:06:19.526Z,4.09
2022-08-22T04:07:31.746Z,3.43
2022-08-22T04:09:19.545Z,3.85
2022-08-22T04:10:19.519Z,4.08
2022-08-22T04:12:19.533Z,4.17
2022-08-22T04:14:19.536Z,3.53
2022-08-22T04:15:19.567Z,3.55
2022-08-22T04:16:19.548Z,4.44
2022-08-22T04:17:19.544Z,3.80
2022-08-22T04:18:19.551Z,4.24
2022-08-22T04:19:19.552Z,4.39
2022-08-22T04:21:19.564Z,4.14
2022-08-22T04:22:19.560Z,4.34
2022-08-22T04:24:19.593Z,3.91
2022-08-22T04:25:19.564Z,3.66
2022-08-22T04:27:19.597Z,3.98
2022-08-22T04:28:19.571Z,3.28
2022-08-22T04:30:19.580Z,4.21
2022-08-22T04:32:19.594Z,4.57
2022-08-22T04:35:19.693Z,4.19
2022-08-22T04:38:19.588Z,4.67
2022-08-22T04:39:19.613Z,3.95
2022-08-22T04:41:19.605Z,3.62
2022-08-22T04:43:19.600Z,3.91
2022-08-22T04:44:19.621Z,3.98
2022-08-22T04:45:19.618Z,3.89
2022-08-22T04:46:19.620Z,3.60
2022-08-22T04:47:19.620Z,3.79
2022-08-22T04:49:19.642Z,3.14
2022-08-22T04:50:19.638Z,4.16
2022-08-22T04:51:19.635Z,3.74
2022-08-22T04:52:19.641Z,3.57
2022-08-22T04:56:19.647Z,4.03
2022-08-22T04:57:19.654Z,4.26
2022-08-22T04:59:19.643Z,4.33
2022-08-22T05:00:19.662Z,3.95
2022-08-22T05:02:19.662Z,4.08
2022-08-22T05:03:19.680Z,3.93
2022-08-22T05:04:19.664Z,3.87
2022-08-22T05:05:19.667Z,3.65
2022-08-22T05:06:19.694Z,3.55
2022-08-22T05:07:19.700Z,3.26
2022-08-22T05:12:19.689Z,4.74
2022-08-22T05:13:19.715Z,4.56
2022-08-22T05:14:19.706Z,4.33
2022-08-22T05:15:22.909Z,4.01
2022-08-22T05:17:19.730Z,4.38
2022-08-22T05:18:19.702Z,4.12
2022-08-22T05:19:24.946Z,4.64
2022-08-22T05:20:19.699Z,5.01
2022-08-22T05:21:19.726Z,4.12
2022-08-22T05:22:19.721Z,4.26
2022-08-22T05:23:19.727Z,4.81
2022-08-22T05:24:19.714Z,4.33
2022-08-22T05:25:19.736Z,4.09
2022-08-22T05:26:19.719Z,4.62
2022-08-22T05:27:19.722Z,4.30
2022-08-22T05:28:19.732Z,4.77
2022-08-22T05:29:19.715Z,4.50
2022-08-22T05:30:19.733Z,4.80
2022-08-22T05:31:19.730Z,4.35
2022-08-22T05:32:19.755Z,3.97
2022-08-22T05:33:19.765Z,4.41
2022-08-22T05:34:19.735Z,4.90
2022-08-22T05:35:19.731Z,4.93
2022-08-22T05:36:19.743Z,4.63
2022-08-22T05:37:19.751Z,4.93
2022-08-22T05:38:19.761Z,4.75
2022-08-22T05:39:19.753Z,4.99
2022-08-22T05:40:19.816Z,3.97
2022-08-22T05:41:19.747Z,4.48
2022-08-22T05:42:19.766Z,4.82
2022-08-22T05:43:19.756Z,3.83
2022-08-22T05:44:19.782Z,5.22
2022-08-22T05:45:19.768Z,5.55
2022-08-22T05:46:19.769Z,5.07
2022-08-22T05:47:19.821Z,4.78
2022-08-22T05:48:19.773Z,5.22
2022-08-22T05:49:19.770Z,4.56
2022-08-22T05:50:19.783Z,5.16
2022-08-22T05:51:19.795Z,4.55
2022-08-22T05:52:19.840Z,4.94
2022-08-22T05:53:19.791Z,4.62
2022-08-22T05:54:19.808Z,4.38
2022-08-22T05:55:19.786Z,5.15
2022-08-22T05:56:19.809Z,4.11
2022-08-22T05:57:19.807Z,3.99
2022-08-22T05:58:19.813Z,4.04
2022-08-22T05:59:19.807Z,4.55
2022-08-22T06:00:21.526Z,4.86
2022-08-22T06:01:19.887Z,4.98
2022-08-22T06:02:19.838Z,4.50
2022-08-22T06:03:19.825Z,4.69
2022-08-22T06:04:19.820Z,4.84
2022-08-22T06:05:19.837Z,4.48
2022-08-22T06:06:19.829Z,5.28
2022-08-22T06:07:19.840Z,5.05
2022-08-22T06:08:19.825Z,4.58
2022-08-22T06:09:19.838Z,5.23
2022-08-22T06:10:19.834Z,4.68
2022-08-22T06:12:21.847Z,4.51
2022-08-22T06:13:21.996Z,4.15
2022-08-22T06:14:19.853Z,4.21
2022-08-22T06:15:20.797Z,4.60
2022-08-22T06:16:19.841Z,4.63
2022-08-22T06:17:19.854Z,4.25
2022-08-22T06:18:19.840Z,4.56
2022-08-22T06:19:20.200Z,4.50
2022-08-22T06:20:19.888Z,4.22
2022-08-22T06:21:19.872Z,4.36
2022-08-22T06:22:19.876Z,4.23
2022-08-22T06:23:19.856Z,4.57
2022-08-22T06:24:19.853Z,4.52
2022-08-22T06:25:19.978Z,4.91
2022-08-22T06:26:21.284Z,5.01
2022-08-22T06:27:19.911Z,4.19
2022-08-22T06:28:19.905Z,4.56
2022-08-22T06:29:19.876Z,4.66
2022-08-22T06:30:19.902Z,4.39
2022-08-22T06:31:19.889Z,4.30
2022-08-22T06:32:58.907Z,4.49
2022-08-22T06:33:19.906Z,4.22
2022-08-22T06:34:19.900Z,4.41
2022-08-22T06:35:19.925Z,4.63
2022-08-22T06:36:20.660Z,4.61
2022-08-22T06:37:19.893Z,4.12
2022-08-22T06:38:19.909Z,4.45
2022-08-22T06:39:19.926Z,5.17
2022-08-22T06:40:20.001Z,4.01
2022-08-22T06:41:19.910Z,4.60
2022-08-22T06:42:19.912Z,4.27
2022-08-22T06:43:19.934Z,4.49
2022-08-22T06:44:19.922Z,4.50
2022-08-22T06:45:19.925Z,4.88
2022-08-22T06:46:19.941Z,4.22
2022-08-22T06:47:19.937Z,4.30
2022-08-22T06:48:19.937Z,3.72
2022-08-22T06:49:19.957Z,4.30
2022-08-22T06:50:19.952Z,4.84
2022-08-22T06:51:19.934Z,4.48
2022-08-22T06:52:19.949Z,4.64
2022-08-22T06:53:19.944Z,5.13
2022-08-22T06:54:19.946Z,4.55
2022-08-22T06:55:19.988Z,4.48
2022-08-22T06:56:19.949Z,4.25
2022-08-22T06:57:19.973Z,3.98
2022-08-22T06:58:19.952Z,4.85
2022-08-22T06:59:19.948Z,4.24
2022-08-22T07:00:19.992Z,4.49
2022-08-22T07:01:20.018Z,4.71
2022-08-22T07:02:19.980Z,4.34
2022-08-22T07:03:19.972Z,3.97
2022-08-22T07:04:19.992Z,4.93
2022-08-22T07:05:19.966Z,4.51
2022-08-22T07:06:19.997Z,4.76
2022-08-22T07:07:19.990Z,4.86
2022-08-22T07:08:19.998Z,4.14
2022-08-22T07:09:19.988Z,4.52
2022-08-22T07:10:20.009Z,5.09
2022-08-22T07:11:19.992Z,4.78
2022-08-22T07:12:19.982Z,4.52
2022-08-22T07:13:20.009Z,4.24
2022-08-22T07:14:20.020Z,3.80
2022-08-22T07:15:20.021Z,4.55
2022-08-22T07:16:20.019Z,4.22
2022-08-22T07:17:20.008Z,3.85
2022-08-22T07:18:20.024Z,3.66
2022-08-22T07:19:20.031Z,4.08
2022-08-22T07:20:20.013Z,3.87
2022-08-22T07:21:20.007Z,3.83
2022-08-22T07:22:20.018Z,3.70
2022-08-22T07:23:20.024Z,3.85
2022-08-22T07:24:20.022Z,3.76
2022-08-22T07:25:20.034Z,3.78
2022-08-22T07:26:20.041Z,3.78
2022-08-22T07:27:20.035Z,4.11
2022-08-22T07:28:20.063Z,3.80
2022-08-22T07:29:20.074Z,3.93
2022-08-22T07:30:27.920Z,3.83
2022-08-22T07:31:20.052Z,3.79
2022-08-22T07:32:20.068Z,3.88
2022-08-22T07:33:26.716Z,3.72
2022-08-22T07:34:20.104Z,4.42
2022-08-22T07:35:20.080Z,5.10
2022-08-22T07:36:22.598Z,4.44
2022-08-22T07:37:20.059Z,5.06
2022-08-22T07:38:20.098Z,4.12
2022-08-22T07:39:20.095Z,4.16
2022-08-22T07:40:20.171Z,4.41
2022-08-22T07:41:20.087Z,4.37
2022-08-22T07:42:20.112Z,4.05
2022-08-22T07:43:20.078Z,3.70
2022-08-22T07:44:20.097Z,3.86
2022-08-22T07:45:20.083Z,3.78
2022-08-22T07:46:20.115Z,3.65
2022-08-22T07:47:26.372Z,3.21
2022-08-22T07:48:26.014Z,3.66
2022-08-22T07:49:20.102Z,3.42
2022-08-22T07:50:20.112Z,3.32
2022-08-22T07:51:20.121Z,3.24
2022-08-22T07:52:20.114Z,3.79
2022-08-22T07:53:20.127Z,3.58
2022-08-22T07:54:20.115Z,3.51
2022-08-22T07:55:20.116Z,4.83
2022-08-22T07:56:20.118Z,3.87
2022-08-22T07:57:20.121Z,3.66
2022-08-22T07:58:20.110Z,3.37
2022-08-22T07:59:20.115Z,3.45
2022-08-22T08:00:20.127Z,3.59
2022-08-22T08:01:20.192Z,3.39
2022-08-22T08:02:20.130Z,2.67
2022-08-22T08:03:20.117Z,3.02
2022-08-22T08:04:20.155Z,2.80
2022-08-22T08:05:20.145Z,2.70
2022-08-22T08:06:20.135Z,2.85
2022-08-22T08:07:20.126Z,2.85
2022-08-22T08:08:20.137Z,3.05
2022-08-22T08:09:20.151Z,3.47
2022-08-22T08:10:20.151Z,3.27
2022-08-22T08:11:20.181Z,2.95
2022-08-22T08:12:20.160Z,3.34
2022-08-22T08:13:20.155Z,3.33
2022-08-22T08:14:20.149Z,3.14
2022-08-22T08:15:20.158Z,2.93
2022-08-22T08:16:20.165Z,3.06
2022-08-22T08:17:20.167Z,2.91
2022-08-22T08:18:20.165Z,3.28
2022-08-22T08:19:20.173Z,3.04
2022-08-22T08:20:20.179Z,2.86
2022-08-22T08:21:20.229Z,2.58
2022-08-22T08:22:20.198Z,2.99
2022-08-22T08:23:23.587Z,3.48
2022-08-22T08:24:20.195Z,2.33
2022-08-22T08:25:20.183Z,3.29
2022-08-22T08:26:20.193Z,2.79
2022-08-22T08:27:20.174Z,2.74
2022-08-22T08:28:20.184Z,3.15
2022-08-22T08:29:20.203Z,3.30
2022-08-22T08:30:20.218Z,2.99
2022-08-22T08:31:20.208Z,2.58
2022-08-22T08:32:20.201Z,2.37
2022-08-22T08:33:25.091Z,2.99
2022-08-22T08:34:20.225Z,2.85
2022-08-22T08:35:20.202Z,2.93
2022-08-22T08:36:20.246Z,3.36
2022-08-22T08:37:20.225Z,2.83
2022-08-22T08:38:20.221Z,2.93
2022-08-22T08:39:20.235Z,3.03
2022-08-22T08:40:20.266Z,2.91
2022-08-22T08:41:22.637Z,3.09
2022-08-22T08:42:20.241Z,2.60
2022-08-22T08:43:20.240Z,3.47
2022-08-22T08:44:20.239Z,2.74
2022-08-22T08:45:20.238Z,2.79
2022-08-22T08:46:20.233Z,2.76
2022-08-22T08:47:20.254Z,2.88
2022-08-22T08:48:20.252Z,2.64
2022-08-22T08:49:20.245Z,2.88
2022-08-22T08:50:20.246Z,3.11
2022-08-22T08:51:20.253Z,2.56
2022-08-22T08:52:20.279Z,2.88
2022-08-22T08:55:22.628Z,2.82
2022-08-22T08:56:20.268Z,2.43
2022-08-22T08:57:20.294Z,2.97
2022-08-22T08:58:20.265Z,2.92
2022-08-22T08:59:20.306Z,2.79
2022-08-22T09:00:20.293Z,2.45
2022-08-22T09:01:20.338Z,2.62
2022-08-22T09:02:20.527Z,3.19
2022-08-22T09:03:29.830Z,3.27
2022-08-22T09:04:20.278Z,2.70
2022-08-22T09:05:20.292Z,3.18
2022-08-22T09:06:20.281Z,2.42
2022-08-22T09:07:20.314Z,2.61
2022-08-22T09:08:20.304Z,2.20
2022-08-22T09:09:20.304Z,2.81
2022-08-22T09:10:20.303Z,2.33
2022-08-22T09:11:27.085Z,3.04
2022-08-22T09:12:20.324Z,2.55
2022-08-22T09:13:20.321Z,2.83
2022-08-22T09:14:20.339Z,2.96
2022-08-22T09:15:20.336Z,2.62
2022-08-22T09:16:20.329Z,2.13
2022-08-22T09:17:21.126Z,2.73
2022-08-22T09:18:20.318Z,2.39
2022-08-22T09:19:20.329Z,2.46
2022-08-22T09:20:20.327Z,2.96
2022-08-22T09:21:30.609Z,2.59
2022-08-22T09:22:20.335Z,3.20
2022-08-22T09:24:20.343Z,2.89
2022-08-22T09:25:20.337Z,3.05
2022-08-22T09:26:20.363Z,3.24
2022-08-22T09:27:20.344Z,3.16
2022-08-22T09:28:20.355Z,3.50
2022-08-22T09:29:20.347Z,2.97
2022-08-22T09:30:28.525Z,4.27
2022-08-22T09:31:33.234Z,3.42
2022-08-22T09:32:20.362Z,3.50
2022-08-22T09:33:20.357Z,3.20
2022-08-22T09:34:24.232Z,3.39
2022-08-22T09:35:20.385Z,2.98
2022-08-22T09:36:20.390Z,3.54
2022-08-22T09:37:20.385Z,2.71
2022-08-22T09:38:20.380Z,2.89
2022-08-22T09:39:20.402Z,3.63
2022-08-22T09:40:24.882Z,3.24
2022-08-22T09:41:20.408Z,3.18
2022-08-22T09:42:20.381Z,3.36
2022-08-22T09:43:21.492Z,3.49
2022-08-22T09:45:20.405Z,3.37
2022-08-22T09:46:20.421Z,3.15
2022-08-22T09:47:24.334Z,2.82
2022-08-22T09:49:20.417Z,3.15
2022-08-22T09:50:20.474Z,3.01
2022-08-22T09:51:32.220Z,3.16
2022-08-22T09:52:27.870Z,2.94
2022-08-22T09:53:20.411Z,3.02
2022-08-22T09:54:20.429Z,2.85
2022-08-22T09:55:25.214Z,3.00
2022-08-22T09:56:20.420Z,3.33
2022-08-22T09:57:22.550Z,3.13
2022-08-22T09:58:20.442Z,2.75
2022-08-22T09:59:20.429Z,2.98
2022-08-22T10:00:22.481Z,3.41
2022-08-22T10:01:20.487Z,2.87
2022-08-22T10:02:20.461Z,2.72
2022-08-22T10:03:20.448Z,3.17
2022-08-22T10:04:20.469Z,3.41
2022-08-22T10:05:40.872Z,3.32
2022-08-22T10:06:20.475Z,3.23
2022-08-22T10:07:20.460Z,3.16
2022-08-22T10:08:20.460Z,4.07
2022-08-22T10:09:21.681Z,3.20
2022-08-22T10:10:20.483Z,3.55
2022-08-22T10:11:20.485Z,3.35
2022-08-22T10:12:20.467Z,3.76
2022-08-22T10:13:20.463Z,3.55
2022-08-22T10:14:22.173Z,3.61
2022-08-22T10:15:20.522Z,2.88
2022-08-22T10:16:20.497Z,3.07
2022-08-22T10:17:22.006Z,3.69
2022-08-22T10:18:20.481Z,3.06
2022-08-22T10:19:20.517Z,3.74
2022-08-22T10:20:20.625Z,3.62
2022-08-22T10:21:20.491Z,3.02
2022-08-22T10:22:20.489Z,3.59
2022-08-22T10:24:25.749Z,3.29
2022-08-22T10:25:20.558Z,3.20
2022-08-22T10:26:22.865Z,3.68
2022-08-22T10:27:20.507Z,3.93
2022-08-22T10:28:20.507Z,3.32
2022-08-22T10:31:20.531Z,3.54
2022-08-22T10:32:20.521Z,3.86
2022-08-22T10:33:20.526Z,3.49
2022-08-22T10:34:20.530Z,3.33
2022-08-22T10:35:20.546Z,3.43
2022-08-22T10:36:20.556Z,3.07
2022-08-22T10:37:23.724Z,3.68
2022-08-22T10:38:20.548Z,3.55
2022-08-22T10:39:22.291Z,3.25
2022-08-22T10:40:20.630Z,3.74
2022-08-22T10:41:22.643Z,3.36
2022-08-22T10:42:23.270Z,3.32
2022-08-22T10:43:20.552Z,3.66
2022-08-22T10:45:32.125Z,3.58
2022-08-22T10:46:20.559Z,2.90
2022-08-22T10:47:20.588Z,3.23
2022-08-22T10:48:20.566Z,3.36
2022-08-22T10:50:20.596Z,3.47
2022-08-22T10:51:20.596Z,3.30
2022-08-22T10:52:20.587Z,4.40
2022-08-22T10:53:26.465Z,4.30
2022-08-22T10:55:20.583Z,2.91
2022-08-22T10:56:21.339Z,3.41
2022-08-22T10:57:20.974Z,2.92
2022-08-22T10:58:21.770Z,2.82
2022-08-22T10:59:22.899Z,2.94
2022-08-22T11:00:22.906Z,2.74
2022-08-22T11:01:38.156Z,2.77
2022-08-22T11:02:20.627Z,3.19
2022-08-22T11:03:23.423Z,3.20
2022-08-22T11:04:20.613Z,3.39
2022-08-22T11:07:21.847Z,2.62
2022-08-22T11:08:20.610Z,3.00
2022-08-22T11:09:20.633Z,3.10
2022-08-22T11:10:20.623Z,2.90
2022-08-22T11:11:20.641Z,3.23
2022-08-22T11:12:20.641Z,2.81
2022-08-22T11:13:20.634Z,3.48
2022-08-22T11:14:20.641Z,3.25
2022-08-22T11:15:34.735Z,2.96
2022-08-22T11:16:20.668Z,3.33
2022-08-22T11:17:27.525Z,3.41
2022-08-22T11:18:20.643Z,3.21
2022-08-22T11:19:20.674Z,3.22
2022-08-22T11:20:21.266Z,3.14
2022-08-22T11:21:20.657Z,2.81
2022-08-22T11:22:20.775Z,3.38
2022-08-22T11:23:20.681Z,2.78
2022-08-22T11:24:34.545Z,2.86
2022-08-22T11:25:29.222Z,2.84
2022-08-22T11:27:20.985Z,3.18
2022-08-22T11:28:20.666Z,3.21
2022-08-22T11:29:20.697Z,3.41
2022-08-22T11:30:20.698Z,3.24
2022-08-22T11:31:20.677Z,3.77
2022-08-22T11:32:20.681Z,3.16
2022-08-22T11:33:20.681Z,3.31
2022-08-22T11:34:20.733Z,3.18
2022-08-22T11:35:20.690Z,3.27
2022-08-22T11:36:27.102Z,3.52
2022-08-22T11:37:23.744Z,3.01
2022-08-22T11:38:20.715Z,2.98
2022-08-22T11:39:20.712Z,3.13
2022-08-22T11:40:20.879Z,3.26
2022-08-22T11:41:20.723Z,2.84
2022-08-22T11:42:21.919Z,2.80
2022-08-22T11:43:20.704Z,3.32
2022-08-22T11:45:21.465Z,3.42
2022-08-22T11:46:20.754Z,3.02
2022-08-22T11:47:20.746Z,3.22
2022-08-22T11:48:20.743Z,3.28
2022-08-22T11:49:20.734Z,3.59
2022-08-22T11:50:20.746Z,3.44
2022-08-22T11:51:25.063Z,3.39
2022-08-22T11:52:20.742Z,2.82
2022-08-22T11:53:20.739Z,3.45
2022-08-22T11:54:20.747Z,2.76
2022-08-22T11:56:20.771Z,3.00
2022-08-22T11:57:20.763Z,3.31
2022-08-22T11:58:20.894Z,3.32
2022-08-22T11:59:20.765Z,2.94
2022-08-22T12:00:21.048Z,2.86
2022-08-22T12:01:20.772Z,2.98
2022-08-22T12:02:20.807Z,2.94
2022-08-22T12:04:20.775Z,2.68
2022-08-22T12:05:24.506Z,3.45
2022-08-22T12:06:20.785Z,3.10
2022-08-22T12:08:21.324Z,3.24
2022-08-22T12:09:20.775Z,3.46
2022-08-22T12:10:20.776Z,3.24
2022-08-22T12:11:20.799Z,2.87
2022-08-22T12:12:20.801Z,3.12
2022-08-22T12:13:20.814Z,3.60
2022-08-22T12:14:20.785Z,3.37
2022-08-22T12:16:20.814Z,3.64
2022-08-22T12:17:50.957Z,3.21
2022-08-22T12:18:21.503Z,3.08
2022-08-22T12:20:20.875Z,2.86
2022-08-22T12:21:20.822Z,3.48
2022-08-22T12:22:20.835Z,3.25
2022-08-22T12:23:20.909Z,3.02
2022-08-22T12:24:21.140Z,3.50
2022-08-22T12:26:22.054Z,3.46
2022-08-22T12:27:28.588Z,3.51
2022-08-22T12:28:20.838Z,3.28
2022-08-22T12:29:33.497Z,3.13
2022-08-22T12:30:20.872Z,3.00
2022-08-22T12:31:20.855Z,3.41
2022-08-22T12:32:27.518Z,3.16
2022-08-22T12:33:23.015Z,3.37
2022-08-22T12:34:20.860Z,2.91
2022-08-22T12:35:20.873Z,3.26
2022-08-22T12:36:20.856Z,3.55
2022-08-22T12:37:20.866Z,3.07
2022-08-22T12:38:28.920Z,3.05
2022-08-22T12:39:20.876Z,3.51
2022-08-22T12:40:20.898Z,3.43
2022-08-22T12:41:27.714Z,2.74
2022-08-22T12:42:20.894Z,3.18
2022-08-22T12:43:21.756Z,3.00
2022-08-22T12:44:20.901Z,2.64
2022-08-22T12:45:20.914Z,2.92
2022-08-22T12:46:20.886Z,3.12
2022-08-22T12:47:20.882Z,3.14
2022-08-22T12:48:20.908Z,2.90
2022-08-22T12:49:20.896Z,3.35
2022-08-22T12:51:20.900Z,3.26
2022-08-22T12:52:20.900Z,3.24
2022-08-22T12:53:20.926Z,3.25
2022-08-22T12:54:20.893Z,2.95
2022-08-22T12:55:20.892Z,3.00
2022-08-22T12:56:20.936Z,3.97
2022-08-22T12:57:24.414Z,3.74
2022-08-22T12:58:20.926Z,3.55
2022-08-22T12:59:20.902Z,3.24
2022-08-22T13:00:23.006Z,3.99
2022-08-22T13:01:23.425Z,3.56
2022-08-22T13:02:20.932Z,4.04
2022-08-22T13:03:20.918Z,2.97
2022-08-22T13:04:33.018Z,3.49
2022-08-22T13:05:20.920Z,3.19
2022-08-22T13:06:20.944Z,2.95
2022-08-22T13:08:20.956Z,3.44
2022-08-22T13:09:28.667Z,3.36
2022-08-22T13:10:20.948Z,2.83
2022-08-22T13:11:23.378Z,3.23
2022-08-22T13:12:21.119Z,3.06
2022-08-22T13:13:23.222Z,2.88
2022-08-22T13:14:24.077Z,3.94
2022-08-22T13:15:20.955Z,3.59
2022-08-22T13:16:20.978Z,3.45
2022-08-22T13:17:24.550Z,3.27
2022-08-22T13:18:29.619Z,3.45
2022-08-22T13:19:20.967Z,3.17
2022-08-22T13:20:20.974Z,3.79
2022-08-22T13:21:20.986Z,3.26
2022-08-22T13:22:20.982Z,3.38
2022-08-22T13:23:20.987Z,2.94
2022-08-22T13:24:22.699Z,3.70
2022-08-22T13:25:25.594Z,2.97
2022-08-22T13:26:31.822Z,2.84
2022-08-22T13:27:21.004Z,2.90
2022-08-22T13:28:21.031Z,2.94
2022-08-22T13:29:26.533Z,3.12
2022-08-22T13:30:21.001Z,2.49
2022-08-22T13:31:20.998Z,3.10
2022-08-22T13:32:21.028Z,3.07
2022-08-22T13:33:21.017Z,2.97
2022-08-22T13:34:22.884Z,2.69
2022-08-22T13:35:24.382Z,3.24
2022-08-22T13:36:21.027Z,3.03
2022-08-22T13:37:24.528Z,2.99
2022-08-22T13:39:21.032Z,3.29
2022-08-22T13:40:21.106Z,2.79
2022-08-22T13:41:21.047Z,3.30
2022-08-22T13:42:27.789Z,3.23
2022-08-22T13:43:21.046Z,3.59
2022-08-22T13:44:21.037Z,3.51
2022-08-22T13:45:21.047Z,3.49
2022-08-22T13:46:21.045Z,3.25
2022-08-22T13:47:21.057Z,3.35
2022-08-22T13:48:21.043Z,3.57
2022-08-22T13:49:21.053Z,2.78
2022-08-22T13:50:21.082Z,3.79
2022-08-22T13:51:21.055Z,3.19
2022-08-22T13:52:29.335Z,3.23
2022-08-22T13:56:21.083Z,2.81
2022-08-22T13:57:21.071Z,2.88
2022-08-22T13:58:21.080Z,3.38
2022-08-22T13:59:40.353Z,3.25
2022-08-22T14:00:28.532Z,4.00
2022-08-22T14:01:21.109Z,3.02
2022-08-22T14:02:21.121Z,2.66
2022-08-22T14:03:21.090Z,3.12
2022-08-22T14:04:33.321Z,3.16
2022-08-22T14:05:21.114Z,3.46
2022-08-22T14:06:38.131Z,2.90
2022-08-22T14:08:21.104Z,2.83
2022-08-22T14:09:29.550Z,3.37
2022-08-22T14:10:21.117Z,2.99
2022-08-22T14:12:21.129Z,2.96
2022-08-22T14:13:21.117Z,3.07
2022-08-22T14:15:21.125Z,3.21
2022-08-22T14:16:21.148Z,2.87
2022-08-22T14:17:21.151Z,2.79
2022-08-22T14:18:21.125Z,3.44
2022-08-22T14:19:21.132Z,3.54
2022-08-22T14:20:32.359Z,3.20
2022-08-22T14:21:21.134Z,3.28
2022-08-22T14:22:21.135Z,3.46
2022-08-22T14:23:21.140Z,3.38
2022-08-22T14:24:21.156Z,3.14
2022-08-22T14:25:21.286Z,3.32
2022-08-22T14:26:21.160Z,3.54
2022-08-22T14:27:21.141Z,3.06
2022-08-22T14:29:21.156Z,3.48
2022-08-22T14:30:21.152Z,3.43
2022-08-22T14:31:21.168Z,3.74
2022-08-22T14:32:22.589Z,2.97
2022-08-22T14:33:21.180Z,3.12
2022-08-22T14:34:21.188Z,3.61
2022-08-22T14:35:21.712Z,3.06
2022-08-22T14:36:21.316Z,3.20
2022-08-22T14:37:21.179Z,2.64
2022-08-22T14:38:21.168Z,3.31
2022-08-22T14:39:21.171Z,3.00
2022-08-22T14:40:21.271Z,2.87
2022-08-22T14:41:21.187Z,3.21
2022-08-22T14:42:21.196Z,2.97
2022-08-22T14:43:22.500Z,2.94
2022-08-22T14:44:21.200Z,3.36
2022-08-22T14:45:21.962Z,3.49
2022-08-22T14:46:21.221Z,3.98
2022-08-22T14:47:34.441Z,3.01
2022-08-22T14:48:31.690Z,3.24
2022-08-22T14:49:24.902Z,3.44
2022-08-22T14:50:21.200Z,3.48
2022-08-22T14:51:21.334Z,3.31
2022-08-22T14:52:21.228Z,3.38
2022-08-22T14:53:24.909Z,3.30
2022-08-22T14:54:21.861Z,2.65
2022-08-22T14:55:21.215Z,2.43
2022-08-22T14:56:21.224Z,3.06
2022-08-22T14:57:21.294Z,3.07
2022-08-22T14:58:27.651Z,2.70
2022-08-22T14:59:21.223Z,3.06
2022-08-22T15:00:21.231Z,3.05
2022-08-22T15:02:21.246Z,3.35
2022-08-22T15:03:21.252Z,3.25
2022-08-22T15:04:21.244Z,3.19
2022-08-22T15:05:21.265Z,2.86
2022-08-22T15:06:23.109Z,2.84
2022-08-22T15:07:21.273Z,2.67
2022-08-22T15:09:21.259Z,3.64
2022-08-22T15:10:21.624Z,2.94
2022-08-22T15:12:21.294Z,3.14
2022-08-22T15:13:21.287Z,3.00
2022-08-22T15:14:21.268Z,3.21
2022-08-22T15:15:21.287Z,3.15
2022-08-22T15:16:21.264Z,3.04
2022-08-22T15:17:21.292Z,3.34
2022-08-22T15:18:21.285Z,4.05
2022-08-22T15:19:21.297Z,3.42
2022-08-22T15:20:25.965Z,3.39
2022-08-22T15:21:24.547Z,3.34
2022-08-22T15:22:21.303Z,3.61
2022-08-22T15:23:21.308Z,3.30
2022-08-22T15:24:21.317Z,3.12
2022-08-22T15:25:21.308Z,3.41
2022-08-22T15:26:21.318Z,3.57
2022-08-22T15:27:21.313Z,3.79
2022-08-22T15:28:21.300Z,3.44
2022-08-22T15:29:21.326Z,3.62